createdAt,value
2022-10-17T00:00:22.961Z,15.73
2022-10-17T00:02:50.681Z,15.69
2022-10-17T00:05:18.579Z,15.66
2022-10-17T00:07:46.326Z,15.59
2022-10-17T00:10:14.201Z,15.55
2022-10-17T00:12:41.964Z,15.53
2022-10-17T00:15:10.331Z,15.49
2022-10-17T00:17:39.386Z,15.44
2022-10-17T00:20:08.359Z,15.45
2022-10-17T00:25:09.449Z,15.37
2022-10-17T00:27:37.468Z,15.39
2022-10-17T00:30:06.685Z,15.35
2022-10-17T00:32:34.576Z,15.36
2022-10-17T00:35:04.114Z,15.34
2022-10-17T00:37:31.913Z,15.34
2022-10-17T00:40:00.027Z,15.32
2022-10-17T00:42:28.830Z,15.35
2022-10-17T00:45:17.025Z,15.31
2022-10-17T00:47:49.348Z,15.30
2022-10-17T00:50:20.607Z,15.30
2022-10-17T00:52:50.047Z,15.31
2022-10-17T00:55:20.970Z,15.28
2022-10-17T00:57:49.359Z,15.26
2022-10-17T01:00:18.361Z,15.29
2022-10-17T01:02:46.492Z,15.37
2022-10-17T01:05:16.371Z,15.50
2022-10-17T01:07:46.649Z,15.49
2022-10-17T01:10:15.206Z,15.47
2022-10-17T01:12:56.421Z,15.49
2022-10-17T01:15:37.856Z,15.51
2022-10-17T01:18:14.729Z,15.56
2022-10-17T01:21:08.128Z,15.54
2022-10-17T01:23:55.276Z,15.50
2022-10-17T01:26:31.426Z,15.48
2022-10-17T01:29:25.031Z,15.47
2022-10-17T01:32:00.899Z,15.47
2022-10-17T01:34:35.929Z,15.51
2022-10-17T01:37:07.888Z,15.51
2022-10-17T01:39:45.517Z,15.51
2022-10-17T01:42:20.826Z,15.44
2022-10-17T01:44:55.453Z,15.47
2022-10-17T01:47:30.012Z,15.42
2022-10-17T01:50:02.760Z,15.40
2022-10-17T01:52:35.119Z,15.37
2022-10-17T01:55:09.114Z,15.30
2022-10-17T01:57:40.758Z,15.24
2022-10-17T02:00:13.822Z,15.20
2022-10-17T02:02:45.252Z,15.21
2022-10-17T02:05:13.513Z,15.19
2022-10-17T02:07:42.473Z,15.19
2022-10-17T02:10:17.077Z,15.14
2022-10-17T02:12:56.105Z,15.11
2022-10-17T02:15:43.550Z,15.12
2022-10-17T02:18:27.065Z,15.10
2022-10-17T02:21:01.293Z,15.10
2022-10-17T02:23:38.835Z,15.07
2022-10-17T02:26:13.570Z,15.05
2022-10-17T02:28:48.478Z,15.02
2022-10-17T02:31:18.710Z,15.03
2022-10-17T02:33:54.138Z,14.99
2022-10-17T02:36:25.805Z,15.00
2022-10-17T02:38:56.188Z,15.00
2022-10-17T02:41:25.440Z,14.96
2022-10-17T02:43:57.653Z,14.98
2022-10-17T02:46:29.644Z,14.96
2022-10-17T02:49:03.499Z,14.93
2022-10-17T02:51:37.859Z,14.95
2022-10-17T02:54:11.283Z,14.94
2022-10-17T02:56:44.103Z,14.97
2022-10-17T02:59:15.262Z,15.00
2022-10-17T03:01:44.986Z,15.04
2022-10-17T03:04:16.080Z,15.02
2022-10-17T03:06:44.391Z,15.01
2022-10-17T03:09:12.119Z,15.05
2022-10-17T03:11:40.123Z,15.02
2022-10-17T03:14:09.548Z,15.07
2022-10-17T03:16:37.658Z,15.08
2022-10-17T03:19:06.103Z,15.06
2022-10-17T03:21:37.794Z,15.08
2022-10-17T03:24:07.765Z,15.13
2022-10-17T03:26:35.598Z,15.14
2022-10-17T03:29:04.611Z,15.14
2022-10-17T03:31:34.432Z,15.10
2022-10-17T03:34:03.976Z,15.11
2022-10-17T03:36:32.123Z,15.10
2022-10-17T03:39:01.208Z,15.10
2022-10-17T03:41:29.290Z,15.11
2022-10-17T03:43:57.040Z,15.11
2022-10-17T03:46:25.636Z,15.14
2022-10-17T03:48:55.284Z,15.17
2022-10-17T03:51:23.398Z,15.25
2022-10-17T03:53:55.511Z,15.24
2022-10-17T03:56:26.256Z,15.25
2022-10-17T03:59:03.978Z,15.24
2022-10-17T04:01:34.841Z,15.22
2022-10-17T04:04:02.740Z,15.23
2022-10-17T04:06:33.729Z,15.22
2022-10-17T04:09:02.191Z,15.19
2022-10-17T04:11:54.671Z,15.19
2022-10-17T04:14:23.576Z,15.17
2022-10-17T04:16:53.439Z,15.14
2022-10-17T04:19:22.277Z,15.12
2022-10-17T04:21:50.901Z,15.07
2022-10-17T04:24:20.062Z,14.99
2022-10-17T04:27:10.650Z,14.99
2022-10-17T04:29:43.935Z,14.97
2022-10-17T04:32:17.341Z,14.91
2022-10-17T04:34:57.045Z,14.93
2022-10-17T04:37:25.327Z,14.92
2022-10-17T04:39:55.306Z,14.86
2022-10-17T04:42:24.387Z,14.84
2022-10-17T04:44:54.381Z,14.83
2022-10-17T04:47:24.996Z,14.79
2022-10-17T04:49:52.967Z,14.77
2022-10-17T04:52:22.901Z,14.76
2022-10-17T04:54:51.536Z,14.76
2022-10-17T04:57:19.876Z,14.77
2022-10-17T04:59:58.995Z,14.81
2022-10-17T05:03:01.800Z,14.78
2022-10-17T05:05:30.673Z,14.76
2022-10-17T05:07:58.723Z,14.79
2022-10-17T05:10:30.684Z,14.85
2022-10-17T05:12:59.306Z,14.87
2022-10-17T05:15:32.298Z,14.87
2022-10-17T05:18:00.072Z,14.90
2022-10-17T05:20:29.837Z,14.94
2022-10-17T05:22:59.976Z,14.92
2022-10-17T05:25:32.609Z,14.89
2022-10-17T05:28:00.352Z,14.83
2022-10-17T05:30:28.315Z,14.82
2022-10-17T05:33:01.939Z,14.78
2022-10-17T05:35:30.051Z,14.76
2022-10-17T05:37:58.841Z,14.75
2022-10-17T05:40:26.907Z,14.71
2022-10-17T05:42:55.600Z,14.70
2022-10-17T05:45:24.784Z,14.68
2022-10-17T05:47:52.981Z,14.70
2022-10-17T05:50:24.180Z,14.70
2022-10-17T05:53:09.482Z,14.64
2022-10-17T05:55:41.687Z,14.60
2022-10-17T05:58:14.306Z,14.63
2022-10-17T06:00:58.209Z,14.74
2022-10-17T06:03:25.899Z,14.82
2022-10-17T06:05:55.903Z,14.93
2022-10-17T06:08:24.108Z,15.00
2022-10-17T06:10:52.223Z,15.09
2022-10-17T06:13:20.520Z,15.14
2022-10-17T06:15:51.691Z,15.17
2022-10-17T06:18:19.566Z,15.25
2022-10-17T06:20:48.001Z,15.29
2022-10-17T06:23:19.772Z,15.35
2022-10-17T06:25:59.928Z,15.36
2022-10-17T06:28:27.914Z,15.41
2022-10-17T06:30:55.985Z,15.49
2022-10-17T06:33:24.197Z,15.58
2022-10-17T06:35:53.137Z,15.74
2022-10-17T06:38:24.713Z,15.93
2022-10-17T06:40:57.720Z,16.05
2022-10-17T06:43:27.878Z,16.11
2022-10-17T06:45:59.598Z,16.24
2022-10-17T06:48:33.825Z,16.36
2022-10-17T06:51:27.831Z,16.36
2022-10-17T06:53:59.879Z,16.43
2022-10-17T06:56:46.336Z,16.47
2022-10-17T06:59:30.177Z,16.28
2022-10-17T07:02:03.702Z,16.31
2022-10-17T07:04:31.788Z,16.32
2022-10-17T07:07:02.917Z,16.59
2022-10-17T07:09:33.597Z,17.13
2022-10-17T07:12:01.544Z,17.22
2022-10-17T07:14:32.099Z,17.71
2022-10-17T07:17:00.635Z,18.00
2022-10-17T07:19:30.269Z,17.76
2022-10-17T07:21:58.082Z,18.11
2022-10-17T07:24:26.583Z,17.92
2022-10-17T07:27:05.406Z,18.00
2022-10-17T07:29:33.807Z,17.67
2022-10-17T07:32:21.849Z,17.79
2022-10-17T07:34:49.710Z,17.66
2022-10-17T07:37:17.576Z,17.53
2022-10-17T07:39:51.537Z,17.63
2022-10-17T07:42:20.629Z,17.66
2022-10-17T07:44:48.372Z,17.61
2022-10-17T07:47:16.889Z,17.88
2022-10-17T07:49:45.849Z,18.06
2022-10-17T07:52:14.450Z,18.28
2022-10-17T07:54:42.257Z,18.54
2022-10-17T07:57:10.508Z,18.54
2022-10-17T07:59:39.803Z,18.70
2022-10-17T08:02:08.446Z,18.70
2022-10-17T08:04:36.696Z,19.07
2022-10-17T08:07:19.093Z,18.82
2022-10-17T08:09:48.739Z,19.06
2022-10-17T08:12:16.525Z,19.10
2022-10-17T08:14:45.771Z,19.18
2022-10-17T08:17:13.461Z,19.61
2022-10-17T08:19:41.669Z,19.43
2022-10-17T08:22:09.763Z,19.27
2022-10-17T08:24:37.489Z,19.05
2022-10-17T08:27:11.233Z,18.94
2022-10-17T08:29:39.117Z,18.95
2022-10-17T08:32:10.000Z,18.89
2022-10-17T08:34:38.049Z,18.82
2022-10-17T08:37:05.834Z,18.92
2022-10-17T08:39:33.587Z,18.84
2022-10-17T08:42:20.385Z,18.93
2022-10-17T08:44:56.776Z,19.22
2022-10-17T08:47:29.726Z,19.36
2022-10-17T08:50:00.663Z,19.27
2022-10-17T08:52:34.281Z,19.36
2022-10-17T08:55:02.146Z,19.24
2022-10-17T08:57:30.141Z,19.20
2022-10-17T08:59:58.077Z,18.98
2022-10-17T09:02:51.143Z,19.03
2022-10-17T09:05:45.427Z,19.28
2022-10-17T09:08:23.513Z,19.18
2022-10-17T09:10:59.069Z,19.11
2022-10-17T09:13:42.104Z,19.31
2022-10-17T09:16:23.161Z,19.36
2022-10-17T09:19:02.085Z,19.31
2022-10-17T09:21:40.764Z,19.56
2022-10-17T09:24:16.711Z,19.89
2022-10-17T09:26:46.320Z,20.08
2022-10-17T09:29:21.049Z,20.89
2022-10-17T09:31:54.731Z,20.82
2022-10-17T09:34:27.468Z,20.65
2022-10-17T09:36:56.096Z,20.86
2022-10-17T09:39:26.120Z,20.83
2022-10-17T09:41:55.638Z,20.84
2022-10-17T09:44:25.126Z,20.73
2022-10-17T09:47:23.795Z,20.82
2022-10-17T09:49:53.176Z,20.55
2022-10-17T09:52:26.493Z,20.61
2022-10-17T09:54:58.380Z,20.85
2022-10-17T09:57:26.481Z,20.75
2022-10-17T09:59:59.977Z,20.56
2022-10-17T10:02:29.946Z,20.64
2022-10-17T10:05:04.599Z,20.66
2022-10-17T10:07:35.828Z,20.78
2022-10-17T10:10:06.242Z,20.75
2022-10-17T10:12:37.006Z,20.77
2022-10-17T10:15:34.523Z,21.07
2022-10-17T10:18:02.653Z,21.21
2022-10-17T10:20:34.961Z,21.47
2022-10-17T10:23:18.260Z,21.95
2022-10-17T10:25:58.429Z,21.90
2022-10-17T10:28:29.385Z,22.17
2022-10-17T10:30:58.372Z,21.92
2022-10-17T10:33:29.941Z,21.66
2022-10-17T10:36:03.605Z,21.58
2022-10-17T10:38:33.077Z,21.58
2022-10-17T10:41:04.951Z,21.73
2022-10-17T10:43:38.133Z,21.55
2022-10-17T10:46:17.192Z,21.61
2022-10-17T10:48:52.311Z,21.69
2022-10-17T10:51:28.192Z,21.74
2022-10-17T10:54:15.388Z,21.90
2022-10-17T10:56:49.852Z,21.98
2022-10-17T10:59:26.502Z,22.27
2022-10-17T11:02:02.097Z,22.37
2022-10-17T11:04:37.254Z,22.28
2022-10-17T11:07:12.349Z,22.07
2022-10-17T11:09:50.257Z,21.85
2022-10-17T11:12:22.571Z,22.14
2022-10-17T11:14:55.515Z,22.15
2022-10-17T11:17:33.296Z,21.90
2022-10-17T11:20:11.255Z,21.88
2022-10-17T11:22:44.483Z,21.58
2022-10-17T11:25:23.436Z,21.55
2022-10-17T11:27:51.276Z,21.53
2022-10-17T11:30:19.198Z,21.63
2022-10-17T11:32:52.209Z,21.58
2022-10-17T11:35:25.358Z,21.57
2022-10-17T11:38:04.899Z,21.85
2022-10-17T11:40:36.991Z,22.11
2022-10-17T11:43:11.347Z,21.96
2022-10-17T11:45:44.186Z,21.87
2022-10-17T11:48:18.384Z,21.87
2022-10-17T11:53:54.281Z,21.80
2022-10-17T11:56:33.083Z,21.85
2022-10-17T11:59:15.782Z,22.01
2022-10-17T12:01:49.682Z,22.10
2022-10-17T12:04:30.595Z,22.05
2022-10-17T12:07:15.298Z,22.22
2022-10-17T12:09:47.902Z,22.09
2022-10-17T12:12:27.286Z,22.05
2022-10-17T12:14:55.849Z,22.21
2022-10-17T12:17:32.993Z,22.10
2022-10-17T12:20:31.441Z,21.77
2022-10-17T12:23:04.789Z,21.95
2022-10-17T12:28:15.822Z,22.14
2022-10-17T12:30:55.886Z,22.04
2022-10-17T12:33:29.804Z,21.92
2022-10-17T12:36:40.626Z,22.08
2022-10-17T12:39:53.383Z,22.36
2022-10-17T12:42:51.024Z,22.62
2022-10-17T12:45:49.477Z,22.65
2022-10-17T12:48:51.181Z,22.57
2022-10-17T12:51:35.213Z,22.60
2022-10-17T12:54:12.965Z,22.64
2022-10-17T12:56:44.483Z,22.47
2022-10-17T12:59:17.807Z,22.43
2022-10-17T13:01:49.005Z,22.41
2022-10-17T13:04:17.776Z,22.38
2022-10-17T13:06:48.224Z,22.42
2022-10-17T13:09:23.912Z,22.47
2022-10-17T13:11:52.150Z,22.46
2022-10-17T13:14:23.481Z,22.42
2022-10-17T13:16:53.962Z,22.33
2022-10-17T13:19:24.434Z,22.29
2022-10-17T13:21:53.353Z,22.30
2022-10-17T13:24:22.283Z,22.23
2022-10-17T13:26:50.138Z,22.14
2022-10-17T13:29:19.510Z,22.19
2022-10-17T13:31:54.267Z,22.14
2022-10-17T13:34:23.563Z,22.01
2022-10-17T13:36:54.374Z,22.03
2022-10-17T13:39:38.419Z,22.00
2022-10-17T13:42:22.676Z,21.75
2022-10-17T13:44:51.072Z,21.78
2022-10-17T13:47:24.942Z,21.72
2022-10-17T13:49:55.374Z,21.70
2022-10-17T13:52:26.269Z,21.77
2022-10-17T13:54:56.245Z,21.73
2022-10-17T13:57:27.370Z,21.71
2022-10-17T13:59:58.187Z,21.75
2022-10-17T14:02:29.497Z,21.76
2022-10-17T14:05:22.997Z,21.86
2022-10-17T14:10:43.464Z,21.98
2022-10-17T14:13:20.852Z,22.05
2022-10-17T14:15:48.951Z,22.02
2022-10-17T14:18:21.762Z,22.03
2022-10-17T14:21:32.125Z,22.03
2022-10-17T14:23:41.516Z,22.12
2022-10-17T14:26:12.754Z,22.14
2022-10-17T14:28:41.939Z,22.11
2022-10-17T14:31:14.438Z,22.16
2022-10-17T14:33:50.582Z,22.13
2022-10-17T14:36:20.397Z,21.83
2022-10-17T14:38:51.013Z,21.86
2022-10-17T14:44:22.106Z,21.67
2022-10-17T14:46:54.647Z,21.73
2022-10-17T14:49:28.376Z,21.67
2022-10-17T14:52:17.540Z,21.73
2022-10-17T14:54:47.709Z,21.76
2022-10-17T14:57:18.880Z,21.76
2022-10-17T14:59:55.419Z,21.69
2022-10-17T15:02:24.043Z,21.72
2022-10-17T15:04:53.465Z,21.62
2022-10-17T15:07:22.102Z,21.59
2022-10-17T15:09:51.488Z,21.54
2022-10-17T15:12:21.221Z,21.54
2022-10-17T15:14:50.633Z,21.53
2022-10-17T15:17:21.598Z,21.43
2022-10-17T15:19:50.455Z,21.43
2022-10-17T15:22:19.665Z,21.41
2022-10-17T15:24:48.207Z,21.41
2022-10-17T15:27:17.778Z,21.34
2022-10-17T15:29:46.087Z,21.25
2022-10-17T15:32:13.924Z,21.29
2022-10-17T15:34:42.105Z,21.30
2022-10-17T15:37:17.911Z,21.29
2022-10-17T15:39:52.992Z,21.26
2022-10-17T15:42:21.492Z,21.23
2022-10-17T15:44:50.193Z,21.17
2022-10-17T15:47:25.654Z,21.13
2022-10-17T15:49:53.577Z,21.08
2022-10-17T15:52:21.511Z,20.99
2022-10-17T15:54:51.020Z,20.83
2022-10-17T15:57:22.739Z,20.74
2022-10-17T15:59:52.168Z,20.59
2022-10-17T16:02:21.749Z,20.59
2022-10-17T16:04:50.919Z,20.55
2022-10-17T16:07:19.152Z,20.58
2022-10-17T16:09:47.404Z,20.53
2022-10-17T16:12:19.855Z,20.53
2022-10-17T16:14:47.609Z,20.49
2022-10-17T16:17:16.271Z,20.46
2022-10-17T16:19:44.769Z,20.45
2022-10-17T16:22:22.492Z,20.41
2022-10-17T16:24:50.270Z,20.38
2022-10-17T16:27:19.328Z,20.32
2022-10-17T16:29:47.028Z,20.32
2022-10-17T16:32:14.744Z,20.27
2022-10-17T16:34:42.395Z,20.21
2022-10-17T16:37:10.133Z,20.21
2022-10-17T16:39:37.820Z,20.16
2022-10-17T16:42:05.541Z,20.09
2022-10-17T16:44:34.739Z,20.05
2022-10-17T16:47:02.451Z,20.06
2022-10-17T16:49:30.177Z,20.05
2022-10-17T16:51:57.907Z,20.03
2022-10-17T16:54:25.555Z,19.98
2022-10-17T16:56:53.275Z,19.96
2022-10-17T16:59:21.017Z,19.91
2022-10-17T17:01:50.053Z,19.76
2022-10-17T17:04:17.999Z,19.67
2022-10-17T17:09:18.492Z,19.58
2022-10-17T17:11:46.212Z,19.59
2022-10-17T17:14:14.359Z,19.54
2022-10-17T17:16:43.264Z,19.52
2022-10-17T17:19:16.756Z,19.46
2022-10-17T17:21:49.969Z,19.44
2022-10-17T17:24:18.376Z,19.42
2022-10-17T17:26:46.818Z,19.38
2022-10-17T17:29:14.549Z,19.34
2022-10-17T17:31:42.350Z,19.28
2022-10-17T17:34:12.031Z,19.24
2022-10-17T17:36:43.655Z,19.01
2022-10-17T17:39:13.611Z,18.91
2022-10-17T17:41:41.839Z,18.83
2022-10-17T17:44:14.038Z,18.76
2022-10-17T17:46:44.389Z,18.78
2022-10-17T17:49:12.414Z,18.64
2022-10-17T17:51:41.452Z,18.60
2022-10-17T17:54:12.518Z,18.51
2022-10-17T17:56:40.748Z,18.54
2022-10-17T17:59:08.534Z,18.52
2022-10-17T18:01:38.746Z,18.48
2022-10-17T18:04:08.562Z,18.42
2022-10-17T18:06:37.024Z,18.38
2022-10-17T18:09:05.732Z,18.45
2022-10-17T18:11:34.939Z,18.54
2022-10-17T18:14:04.768Z,18.52
2022-10-17T18:16:35.166Z,18.55
2022-10-17T18:19:06.666Z,18.41
2022-10-17T18:21:35.927Z,18.46
2022-10-17T18:24:04.787Z,18.49
2022-10-17T18:26:34.423Z,18.38
2022-10-17T18:29:02.328Z,18.38
2022-10-17T18:31:35.383Z,18.35
2022-10-17T18:34:04.771Z,18.37
2022-10-17T18:36:33.710Z,18.37
2022-10-17T18:39:02.585Z,18.34
2022-10-17T18:41:30.922Z,18.35
2022-10-17T18:44:00.148Z,18.25
2022-10-17T18:46:30.803Z,18.32
2022-10-17T18:48:59.251Z,18.37
2022-10-17T18:51:27.583Z,18.33
2022-10-17T18:53:58.626Z,18.34
2022-10-17T18:56:27.093Z,18.30
2022-10-17T18:58:55.488Z,18.27
2022-10-17T19:01:26.570Z,18.26
2022-10-17T19:03:56.889Z,18.27
2022-10-17T19:06:31.559Z,18.26
2022-10-17T19:09:00.108Z,18.28
2022-10-17T19:11:29.432Z,18.28
2022-10-17T19:13:58.874Z,18.23
2022-10-17T19:16:30.244Z,18.20
2022-10-17T19:18:59.547Z,18.24
2022-10-17T19:21:27.333Z,18.20
2022-10-17T19:23:57.989Z,18.18
2022-10-17T19:26:27.869Z,18.10
2022-10-17T19:28:56.275Z,18.05
2022-10-17T19:31:27.266Z,17.90
2022-10-17T19:33:57.546Z,17.83
2022-10-17T19:36:30.663Z,17.77
2022-10-17T19:39:02.743Z,17.80
2022-10-17T19:41:30.661Z,17.81
2022-10-17T19:43:58.543Z,17.78
2022-10-17T19:46:28.351Z,17.77
2022-10-17T19:48:58.288Z,17.80
2022-10-17T19:51:26.548Z,17.76
2022-10-17T19:53:56.001Z,17.73
2022-10-17T19:56:25.545Z,17.71
2022-10-17T19:58:54.220Z,17.70
2022-10-17T20:01:24.691Z,17.64
2022-10-17T20:03:53.371Z,17.57
2022-10-17T20:06:23.190Z,17.55
2022-10-17T20:08:51.433Z,17.55
2022-10-17T20:11:21.214Z,17.58
2022-10-17T20:13:49.251Z,17.54
2022-10-17T20:16:20.475Z,17.56
2022-10-17T20:18:48.775Z,17.48
2022-10-17T20:21:19.135Z,17.43
2022-10-17T20:23:48.471Z,17.47
2022-10-17T20:26:26.290Z,17.49
2022-10-17T20:29:02.457Z,17.51
2022-10-17T20:31:30.394Z,17.44
2022-10-17T20:33:59.271Z,17.40
2022-10-17T20:36:26.962Z,17.39
2022-10-17T20:38:56.236Z,17.42
2022-10-17T20:41:24.842Z,17.46
2022-10-17T20:43:53.738Z,17.48
2022-10-17T20:46:35.483Z,17.48
2022-10-17T20:49:05.838Z,17.43
2022-10-17T20:51:34.123Z,17.33
2022-10-17T20:54:03.707Z,17.32
2022-10-17T20:56:33.549Z,17.27
2022-10-17T20:59:03.627Z,17.24
2022-10-17T21:01:33.191Z,17.21
2022-10-17T21:04:21.442Z,17.20
2022-10-17T21:06:49.141Z,17.18
2022-10-17T21:09:18.791Z,17.19
2022-10-17T21:11:46.684Z,17.17
2022-10-17T21:14:16.601Z,17.13
2022-10-17T21:16:44.795Z,17.15
2022-10-17T21:19:13.210Z,17.18
2022-10-17T21:21:42.683Z,17.11
2022-10-17T21:24:14.096Z,17.06
2022-10-17T21:26:44.623Z,17.07
2022-10-17T21:29:13.532Z,17.11
2022-10-17T21:31:43.257Z,17.15
2022-10-17T21:34:13.655Z,17.14
2022-10-17T21:36:41.695Z,17.04
2022-10-17T21:39:10.980Z,17.00
2022-10-17T21:41:38.870Z,17.04
2022-10-17T21:44:12.273Z,17.04
2022-10-17T21:46:40.033Z,16.97
2022-10-17T21:49:07.878Z,16.87
2022-10-17T21:51:35.686Z,16.88
2022-10-17T21:54:05.759Z,16.89
2022-10-17T21:56:34.753Z,16.90
2022-10-17T21:59:02.721Z,16.89
2022-10-17T22:01:33.787Z,16.90
2022-10-17T22:04:03.229Z,16.90
2022-10-17T22:06:39.627Z,16.81
2022-10-17T22:09:11.139Z,16.77
2022-10-17T22:11:38.917Z,16.74
2022-10-17T22:14:08.412Z,16.74
2022-10-17T22:16:38.611Z,16.82
2022-10-17T22:19:07.902Z,16.80
2022-10-17T22:21:36.780Z,16.78
2022-10-17T22:24:07.079Z,16.72
2022-10-17T22:26:37.814Z,16.74
2022-10-17T22:29:06.324Z,16.74
2022-10-17T22:31:35.722Z,16.71
2022-10-17T22:34:05.825Z,16.70
2022-10-17T22:36:33.958Z,16.73
2022-10-17T22:39:01.802Z,16.75
2022-10-17T22:41:29.830Z,16.72
2022-10-17T22:43:57.638Z,16.67
2022-10-17T22:46:26.467Z,16.60
2022-10-17T22:48:54.151Z,16.57
2022-10-17T22:53:56.547Z,16.47
2022-10-17T22:56:24.360Z,16.48
2022-10-17T22:58:52.324Z,16.48
2022-10-17T23:01:22.516Z,16.49
2022-10-17T23:03:50.724Z,16.44
2022-10-17T23:06:19.475Z,16.40
2022-10-17T23:08:49.183Z,16.43
2022-10-17T23:11:17.328Z,16.40
2022-10-17T23:13:45.175Z,16.40
2022-10-17T23:16:12.916Z,16.40
2022-10-17T23:18:40.960Z,16.40
2022-10-17T23:21:09.343Z,16.39
2022-10-17T23:23:37.664Z,16.44
2022-10-17T23:26:08.586Z,16.43
2022-10-17T23:28:36.349Z,16.40
2022-10-17T23:31:15.691Z,16.39
2022-10-17T23:33:45.054Z,16.37
2022-10-17T23:36:13.849Z,16.30
2022-10-17T23:38:42.544Z,16.30
2022-10-17T23:41:12.176Z,16.35
2022-10-17T23:43:40.102Z,16.35
2022-10-17T23:46:08.426Z,16.31
2022-10-17T23:48:37.413Z,16.27
2022-10-17T23:51:06.689Z,16.29
2022-10-17T23:53:34.440Z,16.23
2022-10-17T23:56:02.513Z,16.21
2022-10-17T23:58:32.139Z,16.23
